sensor_id;sensor_type;location;lat;lon;timestamp;P1;durP1;ratioP1;P2;durP2;ratioP2
63112;SDS011;49206;48.020;21.378;2023-01-23T00:00:13;10.00;;;5.97;;
63112;SDS011;49206;48.020;21.378;2023-01-23T00:02:21;12.23;;;6.32;;
63112;SDS011;49206;48.020;21.378;2023-01-23T00:03:27;14.48;;;7.07;;
63112;SDS011;49206;48.020;21.378;2023-01-23T00:04:30;12.45;;;6.78;;
63112;SDS011;49206;48.020;21.378;2023-01-23T00:05:33;11.73;;;6.63;;
63112;SDS011;49206;48.020;21.378;2023-01-23T00:06:36;10.93;;;6.15;;
63112;SDS011;49206;48.020;21.378;2023-01-23T00:07:39;11.20;;;6.50;;
63112;SDS011;49206;48.020;21.378;2023-01-23T00:08:43;11.38;;;6.57;;
63112;SDS011;49206;48.020;21.378;2023-01-23T00:09:49;11.85;;;6.57;;
63112;SDS011;49206;48.020;21.378;2023-01-23T00:10:52;10.32;;;6.63;;
63112;SDS011;49206;48.020;21.378;2023-01-23T00:11:55;12.63;;;6.50;;
63112;SDS011;49206;48.020;21.378;2023-01-23T00:12:57;13.68;;;7.38;;
63112;SDS011;49206;48.020;21.378;2023-01-23T00:14:01;13.70;;;6.32;;
63112;SDS011;49206;48.020;21.378;2023-01-23T00:15:04;9.85;;;5.97;;
63112;SDS011;49206;48.020;21.378;2023-01-23T00:16:12;12.68;;;6.18;;
63112;SDS011;49206;48.020;21.378;2023-01-23T00:17:17;10.75;;;5.82;;
63112;SDS011;49206;48.020;21.378;2023-01-23T00:18:24;9.57;;;5.78;;
63112;SDS011;49206;48.020;21.378;2023-01-23T00:19:27;12.00;;;5.93;;
63112;SDS011;49206;48.020;21.378;2023-01-23T00:20:31;10.75;;;6.28;;
63112;SDS011;49206;48.020;21.378;2023-01-23T00:21:36;8.20;;;5.38;;
63112;SDS011;49206;48.020;21.378;2023-01-23T00:22:40;11.88;;;6.15;;
63112;SDS011;49206;48.020;21.378;2023-01-23T00:23:51;10.15;;;5.55;;
63112;SDS011;49206;48.020;21.378;2023-01-23T00:24:57;10.38;;;5.90;;
63112;SDS011;49206;48.020;21.378;2023-01-23T00:26:06;8.77;;;5.57;;
63112;SDS011;49206;48.020;21.378;2023-01-23T00:27:10;10.45;;;5.57;;
63112;SDS011;49206;48.020;21.378;2023-01-23T00:28:13;10.77;;;6.38;;
63112;SDS011;49206;48.020;21.378;2023-01-23T00:29:16;9.88;;;5.43;;
63112;SDS011;49206;48.020;21.378;2023-01-23T00:30:19;9.50;;;5.97;;
63112;SDS011;49206;48.020;21.378;2023-01-23T00:31:25;8.80;;;5.25;;
63112;SDS011;49206;48.020;21.378;2023-01-23T00:32:31;9.85;;;5.95;;
63112;SDS011;49206;48.020;21.378;2023-01-23T00:33:36;10.55;;;5.70;;
63112;SDS011;49206;48.020;21.378;2023-01-23T00:34:39;9.98;;;5.47;;
63112;SDS011;49206;48.020;21.378;2023-01-23T00:35:41;11.15;;;6.30;;
63112;SDS011;49206;48.020;21.378;2023-01-23T00:36:44;10.15;;;5.95;;
63112;SDS011;49206;48.020;21.378;2023-01-23T00:39:55;8.65;;;4.93;;
63112;SDS011;49206;48.020;21.378;2023-01-23T00:41:01;8.82;;;5.43;;
63112;SDS011;49206;48.020;21.378;2023-01-23T00:42:06;10.68;;;5.45;;
63112;SDS011;49206;48.020;21.378;2023-01-23T00:43:09;9.45;;;6.00;;
63112;SDS011;49206;48.020;21.378;2023-01-23T00:44:12;8.07;;;5.15;;
63112;SDS011;49206;48.020;21.378;2023-01-23T00:45:15;10.43;;;5.57;;
63112;SDS011;49206;48.020;21.378;2023-01-23T00:46:19;8.50;;;4.90;;
63112;SDS011;49206;48.020;21.378;2023-01-23T00:47:26;10.93;;;5.60;;
63112;SDS011;49206;48.020;21.378;2023-01-23T00:48:30;8.80;;;5.10;;
63112;SDS011;49206;48.020;21.378;2023-01-23T00:49:33;9.32;;;5.10;;
63112;SDS011;49206;48.020;21.378;2023-01-23T00:50:36;10.23;;;5.43;;
63112;SDS011;49206;48.020;21.378;2023-01-23T00:51:39;9.63;;;5.68;;
63112;SDS011;49206;48.020;21.378;2023-01-23T00:52:42;7.47;;;4.63;;
63112;SDS011;49206;48.020;21.378;2023-01-23T00:53:44;7.55;;;4.80;;
63112;SDS011;49206;48.020;21.378;2023-01-23T00:54:48;8.80;;;5.05;;
63112;SDS011;49206;48.020;21.378;2023-01-23T00:55:50;6.50;;;4.97;;
63112;SDS011;49206;48.020;21.378;2023-01-23T00:56:59;7.65;;;4.45;;
63112;SDS011;49206;48.020;21.378;2023-01-23T00:58:02;8.88;;;5.30;;
63112;SDS011;49206;48.020;21.378;2023-01-23T00:59:05;7.15;;;4.53;;
63112;SDS011;49206;48.020;21.378;2023-01-23T01:00:08;7.60;;;4.90;;
63112;SDS011;49206;48.020;21.378;2023-01-23T01:01:14;7.30;;;5.07;;
63112;SDS011;49206;48.020;21.378;2023-01-23T01:03:21;8.63;;;4.63;;
63112;SDS011;49206;48.020;21.378;2023-01-23T01:04:26;8.85;;;5.47;;
63112;SDS011;49206;48.020;21.378;2023-01-23T01:05:29;9.63;;;4.63;;
63112;SDS011;49206;48.020;21.378;2023-01-23T01:06:33;7.15;;;4.75;;
63112;SDS011;49206;48.020;21.378;2023-01-23T01:07:36;9.68;;;5.93;;
63112;SDS011;49206;48.020;21.378;2023-01-23T01:08:39;9.38;;;5.28;;
63112;SDS011;49206;48.020;21.378;2023-01-23T01:09:42;7.25;;;4.93;;
63112;SDS011;49206;48.020;21.378;2023-01-23T01:10:45;11.55;;;6.40;;
63112;SDS011;49206;48.020;21.378;2023-01-23T01:11:48;7.93;;;4.80;;
63112;SDS011;49206;48.020;21.378;2023-01-23T01:12:51;9.05;;;5.20;;
63112;SDS011;49206;48.020;21.378;2023-01-23T01:13:55;7.35;;;4.68;;
63112;SDS011;49206;48.020;21.378;2023-01-23T01:15:00;8.13;;;4.65;;
63112;SDS011;49206;48.020;21.378;2023-01-23T01:16:05;7.28;;;5.18;;
63112;SDS011;49206;48.020;21.378;2023-01-23T01:17:11;10.43;;;5.22;;
63112;SDS011;49206;48.020;21.378;2023-01-23T01:18:15;10.00;;;5.70;;
63112;SDS011;49206;48.020;21.378;2023-01-23T01:19:18;9.90;;;5.53;;
63112;SDS011;49206;48.020;21.378;2023-01-23T01:20:22;10.85;;;5.32;;
63112;SDS011;49206;48.020;21.378;2023-01-23T01:21:27;10.18;;;5.15;;
63112;SDS011;49206;48.020;21.378;2023-01-23T01:22:31;9.00;;;5.70;;
63112;SDS011;49206;48.020;21.378;2023-01-23T01:23:35;10.13;;;5.05;;
63112;SDS011;49206;48.020;21.378;2023-01-23T01:24:40;8.40;;;4.78;;
63112;SDS011;49206;48.020;21.378;2023-01-23T01:25:43;8.27;;;5.00;;
63112;SDS011;49206;48.020;21.378;2023-01-23T01:26:47;9.32;;;5.43;;
63112;SDS011;49206;48.020;21.378;2023-01-23T01:27:50;8.75;;;5.20;;
63112;SDS011;49206;48.020;21.378;2023-01-23T01:28:54;7.85;;;5.03;;
63112;SDS011;49206;48.020;21.378;2023-01-23T01:30:04;8.13;;;5.25;;
63112;SDS011;49206;48.020;21.378;2023-01-23T01:31:09;10.35;;;5.25;;
63112;SDS011;49206;48.020;21.378;2023-01-23T01:32:14;9.73;;;5.60;;
63112;SDS011;49206;48.020;21.378;2023-01-23T01:33:16;9.88;;;6.00;;
63112;SDS011;49206;48.020;21.378;2023-01-23T01:34:23;8.23;;;5.20;;
63112;SDS011;49206;48.020;21.378;2023-01-23T01:35:26;9.73;;;5.65;;
63112;SDS011;49206;48.020;21.378;2023-01-23T01:36:29;9.13;;;5.50;;
63112;SDS011;49206;48.020;21.378;2023-01-23T01:37:37;9.88;;;5.47;;
63112;SDS011;49206;48.020;21.378;2023-01-23T01:38:43;11.63;;;5.90;;
63112;SDS011;49206;48.020;21.378;2023-01-23T01:39:46;10.40;;;5.75;;
63112;SDS011;49206;48.020;21.378;2023-01-23T01:40:49;11.75;;;6.38;;
63112;SDS011;49206;48.020;21.378;2023-01-23T01:41:52;11.40;;;5.72;;
63112;SDS011;49206;48.020;21.378;2023-01-23T01:42:58;9.02;;;6.00;;
63112;SDS011;49206;48.020;21.378;2023-01-23T01:44:03;9.65;;;5.97;;
63112;SDS011;49206;48.020;21.378;2023-01-23T01:46:51;9.80;;;5.38;;
63112;SDS011;49206;48.020;21.378;2023-01-23T01:47:54;10.35;;;5.47;;
63112;SDS011;49206;48.020;21.378;2023-01-23T01:49:08;10.00;;;5.20;;
63112;SDS011;49206;48.020;21.378;2023-01-23T01:50:16;13.00;;;6.32;;
63112;SDS011;49206;48.020;21.378;2023-01-23T01:51:55;10.27;;;5.43;;
63112;SDS011;49206;48.020;21.378;2023-01-23T01:52:54;11.18;;;5.50;;
63112;SDS011;49206;48.020;21.378;2023-01-23T01:55:20;10.02;;;5.40;;
63112;SDS011;49206;48.020;21.378;2023-01-23T01:56:23;9.95;;;5.40;;
63112;SDS011;49206;48.020;21.378;2023-01-23T01:57:31;10.88;;;6.13;;
63112;SDS011;49206;48.020;21.378;2023-01-23T01:58:45;10.48;;;5.85;;
63112;SDS011;49206;48.020;21.378;2023-01-23T01:59:55;11.68;;;6.30;;
63112;SDS011;49206;48.020;21.378;2023-01-23T02:01:01;8.88;;;5.32;;
63112;SDS011;49206;48.020;21.378;2023-01-23T02:02:11;12.30;;;6.28;;
63112;SDS011;49206;48.020;21.378;2023-01-23T02:03:16;7.88;;;5.35;;
63112;SDS011;49206;48.020;21.378;2023-01-23T02:04:22;9.02;;;5.45;;
63112;SDS011;49206;48.020;21.378;2023-01-23T02:06:36;10.18;;;5.70;;
63112;SDS011;49206;48.020;21.378;2023-01-23T02:09:22;10.45;;;5.32;;
63112;SDS011;49206;48.020;21.378;2023-01-23T02:10:28;9.02;;;5.22;;
63112;SDS011;49206;48.020;21.378;2023-01-23T02:11:33;9.93;;;5.25;;
63112;SDS011;49206;48.020;21.378;2023-01-23T02:12:36;8.90;;;5.22;;
63112;SDS011;49206;48.020;21.378;2023-01-23T02:13:40;10.85;;;6.65;;
63112;SDS011;49206;48.020;21.378;2023-01-23T02:14:44;10.82;;;5.90;;
63112;SDS011;49206;48.020;21.378;2023-01-23T02:15:47;9.18;;;5.45;;
63112;SDS011;49206;48.020;21.378;2023-01-23T02:16:55;8.55;;;4.90;;
63112;SDS011;49206;48.020;21.378;2023-01-23T02:18:04;9.82;;;5.35;;
63112;SDS011;49206;48.020;21.378;2023-01-23T02:19:10;9.68;;;5.03;;
63112;SDS011;49206;48.020;21.378;2023-01-23T02:20:35;8.88;;;5.20;;
63112;SDS011;49206;48.020;21.378;2023-01-23T02:21:38;10.57;;;5.97;;
63112;SDS011;49206;48.020;21.378;2023-01-23T02:24:09;9.05;;;4.93;;
63112;SDS011;49206;48.020;21.378;2023-01-23T02:26:50;9.63;;;4.82;;
63112;SDS011;49206;48.020;21.378;2023-01-23T02:27:53;10.27;;;5.38;;
63112;SDS011;49206;48.020;21.378;2023-01-23T02:28:56;8.80;;;5.25;;
63112;SDS011;49206;48.020;21.378;2023-01-23T02:30:05;8.30;;;5.10;;
63112;SDS011;49206;48.020;21.378;2023-01-23T02:31:16;7.38;;;4.55;;
63112;SDS011;49206;48.020;21.378;2023-01-23T02:32:23;8.88;;;4.97;;
63112;SDS011;49206;48.020;21.378;2023-01-23T02:34:29;8.43;;;4.53;;
63112;SDS011;49206;48.020;21.378;2023-01-23T02:35:35;7.95;;;4.75;;
63112;SDS011;49206;48.020;21.378;2023-01-23T02:36:44;8.82;;;5.30;;
63112;SDS011;49206;48.020;21.378;2023-01-23T02:37:54;10.38;;;5.57;;
63112;SDS011;49206;48.020;21.378;2023-01-23T02:39:09;9.38;;;5.38;;
63112;SDS011;49206;48.020;21.378;2023-01-23T02:40:14;7.47;;;4.90;;
63112;SDS011;49206;48.020;21.378;2023-01-23T02:41:21;9.10;;;5.38;;
63112;SDS011;49206;48.020;21.378;2023-01-23T02:42:27;8.68;;;4.80;;
63112;SDS011;49206;48.020;21.378;2023-01-23T02:43:34;9.15;;;5.47;;
63112;SDS011;49206;48.020;21.378;2023-01-23T02:44:40;8.55;;;5.32;;
63112;SDS011;49206;48.020;21.378;2023-01-23T02:45:43;6.07;;;4.25;;
63112;SDS011;49206;48.020;21.378;2023-01-23T02:46:51;6.50;;;4.05;;
63112;SDS011;49206;48.020;21.378;2023-01-23T02:48:00;7.38;;;4.57;;
63112;SDS011;49206;48.020;21.378;2023-01-23T02:49:07;7.45;;;4.50;;
63112;SDS011;49206;48.020;21.378;2023-01-23T02:50:12;8.25;;;4.25;;
63112;SDS011;49206;48.020;21.378;2023-01-23T02:51:16;7.07;;;5.10;;
63112;SDS011;49206;48.020;21.378;2023-01-23T02:52:22;7.88;;;3.97;;
63112;SDS011;49206;48.020;21.378;2023-01-23T02:53:25;8.52;;;4.72;;
63112;SDS011;49206;48.020;21.378;2023-01-23T02:54:38;6.82;;;4.10;;
63112;SDS011;49206;48.020;21.378;2023-01-23T02:55:46;6.40;;;4.47;;
63112;SDS011;49206;48.020;21.378;2023-01-23T02:56:53;7.03;;;4.00;;
63112;SDS011;49206;48.020;21.378;2023-01-23T02:58:01;5.85;;;3.85;;
63112;SDS011;49206;48.020;21.378;2023-01-23T02:59:24;6.72;;;4.15;;
63112;SDS011;49206;48.020;21.378;2023-01-23T03:00:46;7.07;;;4.47;;
63112;SDS011;49206;48.020;21.378;2023-01-23T03:01:51;6.93;;;4.40;;
63112;SDS011;49206;48.020;21.378;2023-01-23T03:02:55;6.85;;;4.70;;
63112;SDS011;49206;48.020;21.378;2023-01-23T03:03:58;9.98;;;4.20;;
63112;SDS011;49206;48.020;21.378;2023-01-23T03:05:06;6.75;;;4.47;;
63112;SDS011;49206;48.020;21.378;2023-01-23T03:06:10;8.13;;;4.40;;
63112;SDS011;49206;48.020;21.378;2023-01-23T03:07:24;5.90;;;3.97;;
63112;SDS011;49206;48.020;21.378;2023-01-23T03:08:27;7.82;;;4.57;;
63112;SDS011;49206;48.020;21.378;2023-01-23T03:09:35;5.63;;;3.97;;
63112;SDS011;49206;48.020;21.378;2023-01-23T03:10:38;7.85;;;4.47;;
63112;SDS011;49206;48.020;21.378;2023-01-23T03:11:42;7.60;;;4.38;;
63112;SDS011;49206;48.020;21.378;2023-01-23T03:12:51;6.80;;;4.30;;
63112;SDS011;49206;48.020;21.378;2023-01-23T03:13:57;6.63;;;4.07;;
63112;SDS011;49206;48.020;21.378;2023-01-23T03:15:07;6.53;;;4.38;;
63112;SDS011;49206;48.020;21.378;2023-01-23T03:16:12;6.15;;;3.97;;
63112;SDS011;49206;48.020;21.378;2023-01-23T03:17:18;6.13;;;4.63;;
63112;SDS011;49206;48.020;21.378;2023-01-23T03:18:24;5.70;;;3.75;;
63112;SDS011;49206;48.020;21.378;2023-01-23T03:19:57;5.18;;;3.88;;
63112;SDS011;49206;48.020;21.378;2023-01-23T03:21:12;7.28;;;4.63;;
63112;SDS011;49206;48.020;21.378;2023-01-23T03:22:20;9.70;;;4.38;;
63112;SDS011;49206;48.020;21.378;2023-01-23T03:23:23;7.80;;;5.22;;
63112;SDS011;49206;48.020;21.378;2023-01-23T03:24:28;8.32;;;4.63;;
63112;SDS011;49206;48.020;21.378;2023-01-23T03:25:32;7.13;;;4.38;;
63112;SDS011;49206;48.020;21.378;2023-01-23T03:26:38;7.03;;;4.50;;
63112;SDS011;49206;48.020;21.378;2023-01-23T03:27:48;6.07;;;4.18;;
63112;SDS011;49206;48.020;21.378;2023-01-23T03:30:28;5.63;;;4.13;;
63112;SDS011;49206;48.020;21.378;2023-01-23T03:31:31;6.03;;;3.75;;
63112;SDS011;49206;48.020;21.378;2023-01-23T03:32:40;5.70;;;3.80;;
63112;SDS011;49206;48.020;21.378;2023-01-23T03:33:48;6.80;;;4.05;;
63112;SDS011;49206;48.020;21.378;2023-01-23T03:34:51;6.60;;;4.07;;
63112;SDS011;49206;48.020;21.378;2023-01-23T03:35:55;7.45;;;4.40;;
63112;SDS011;49206;48.020;21.378;2023-01-23T03:37:06;6.55;;;3.78;;
63112;SDS011;49206;48.020;21.378;2023-01-23T03:38:13;7.18;;;4.43;;
63112;SDS011;49206;48.020;21.378;2023-01-23T03:39:22;6.57;;;4.18;;
63112;SDS011;49206;48.020;21.378;2023-01-23T03:41:12;7.15;;;4.60;;
63112;SDS011;49206;48.020;21.378;2023-01-23T03:43:39;5.38;;;4.30;;
63112;SDS011;49206;48.020;21.378;2023-01-23T03:44:42;5.07;;;3.45;;
63112;SDS011;49206;48.020;21.378;2023-01-23T03:45:48;6.82;;;4.28;;
63112;SDS011;49206;48.020;21.378;2023-01-23T03:47:03;7.28;;;4.57;;
63112;SDS011;49206;48.020;21.378;2023-01-23T03:48:14;8.07;;;4.43;;
63112;SDS011;49206;48.020;21.378;2023-01-23T03:49:19;11.10;;;4.53;;
63112;SDS011;49206;48.020;21.378;2023-01-23T03:50:36;6.50;;;4.22;;
63112;SDS011;49206;48.020;21.378;2023-01-23T03:51:43;6.65;;;4.22;;
63112;SDS011;49206;48.020;21.378;2023-01-23T03:52:46;7.13;;;4.40;;
63112;SDS011;49206;48.020;21.378;2023-01-23T03:53:52;6.72;;;4.50;;
63112;SDS011;49206;48.020;21.378;2023-01-23T03:54:55;6.80;;;3.80;;
63112;SDS011;49206;48.020;21.378;2023-01-23T03:56:00;6.88;;;4.45;;
63112;SDS011;49206;48.020;21.378;2023-01-23T03:57:15;8.48;;;5.28;;
63112;SDS011;49206;48.020;21.378;2023-01-23T03:58:46;6.13;;;3.72;;
63112;SDS011;49206;48.020;21.378;2023-01-23T03:59:49;6.18;;;4.40;;
63112;SDS011;49206;48.020;21.378;2023-01-23T04:00:54;6.93;;;4.10;;
63112;SDS011;49206;48.020;21.378;2023-01-23T04:01:59;6.32;;;4.40;;
63112;SDS011;49206;48.020;21.378;2023-01-23T04:03:04;4.80;;;3.70;;
63112;SDS011;49206;48.020;21.378;2023-01-23T04:04:10;6.20;;;4.35;;
63112;SDS011;49206;48.020;21.378;2023-01-23T04:05:16;6.30;;;4.20;;
63112;SDS011;49206;48.020;21.378;2023-01-23T04:06:27;6.03;;;4.15;;
63112;SDS011;49206;48.020;21.378;2023-01-23T04:07:57;5.15;;;3.90;;
63112;SDS011;49206;48.020;21.378;2023-01-23T04:09:01;4.63;;;3.45;;
63112;SDS011;49206;48.020;21.378;2023-01-23T04:10:08;7.60;;;4.63;;
63112;SDS011;49206;48.020;21.378;2023-01-23T04:11:16;8.00;;;4.28;;
63112;SDS011;49206;48.020;21.378;2023-01-23T04:12:20;7.22;;;4.55;;
63112;SDS011;49206;48.020;21.378;2023-01-23T04:13:28;5.70;;;3.70;;
63112;SDS011;49206;48.020;21.378;2023-01-23T04:14:42;6.20;;;4.25;;
63112;SDS011;49206;48.020;21.378;2023-01-23T04:15:49;6.43;;;4.20;;
63112;SDS011;49206;48.020;21.378;2023-01-23T04:16:53;5.97;;;3.92;;
63112;SDS011;49206;48.020;21.378;2023-01-23T04:18:00;4.82;;;4.07;;
63112;SDS011;49206;48.020;21.378;2023-01-23T04:19:04;7.53;;;4.53;;
63112;SDS011;49206;48.020;21.378;2023-01-23T04:20:07;7.50;;;4.60;;
63112;SDS011;49206;48.020;21.378;2023-01-23T04:21:14;6.25;;;4.15;;
63112;SDS011;49206;48.020;21.378;2023-01-23T04:22:17;7.32;;;4.63;;
63112;SDS011;49206;48.020;21.378;2023-01-23T04:23:24;6.50;;;4.63;;
63112;SDS011;49206;48.020;21.378;2023-01-23T04:24:28;5.93;;;3.92;;
63112;SDS011;49206;48.020;21.378;2023-01-23T04:25:45;7.38;;;4.05;;
63112;SDS011;49206;48.020;21.378;2023-01-23T04:26:50;6.40;;;4.50;;
63112;SDS011;49206;48.020;21.378;2023-01-23T04:28:02;6.25;;;4.45;;
63112;SDS011;49206;48.020;21.378;2023-01-23T04:29:07;6.63;;;4.15;;
63112;SDS011;49206;48.020;21.378;2023-01-23T04:30:12;7.28;;;4.57;;
63112;SDS011;49206;48.020;21.378;2023-01-23T04:31:17;7.55;;;4.28;;
63112;SDS011;49206;48.020;21.378;2023-01-23T04:32:23;5.72;;;4.50;;
63112;SDS011;49206;48.020;21.378;2023-01-23T04:33:31;6.90;;;4.43;;
63112;SDS011;49206;48.020;21.378;2023-01-23T04:34:37;9.35;;;5.30;;
63112;SDS011;49206;48.020;21.378;2023-01-23T04:35:47;7.50;;;4.45;;
63112;SDS011;49206;48.020;21.378;2023-01-23T04:36:59;6.43;;;4.40;;
63112;SDS011;49206;48.020;21.378;2023-01-23T04:38:04;7.78;;;4.88;;
63112;SDS011;49206;48.020;21.378;2023-01-23T04:39:09;7.15;;;4.60;;
63112;SDS011;49206;48.020;21.378;2023-01-23T04:40:15;5.78;;;4.07;;
63112;SDS011;49206;48.020;21.378;2023-01-23T04:41:32;7.38;;;4.28;;
63112;SDS011;49206;48.020;21.378;2023-01-23T04:42:51;7.43;;;4.15;;
63112;SDS011;49206;48.020;21.378;2023-01-23T04:44:14;7.40;;;4.78;;
63112;SDS011;49206;48.020;21.378;2023-01-23T04:45:57;7.38;;;4.38;;
63112;SDS011;49206;48.020;21.378;2023-01-23T04:47:18;7.13;;;5.03;;
63112;SDS011;49206;48.020;21.378;2023-01-23T04:48:24;7.78;;;4.75;;
63112;SDS011;49206;48.020;21.378;2023-01-23T04:49:28;7.20;;;3.90;;
63112;SDS011;49206;48.020;21.378;2023-01-23T04:50:34;9.20;;;4.80;;
63112;SDS011;49206;48.020;21.378;2023-01-23T04:51:44;8.55;;;4.43;;
63112;SDS011;49206;48.020;21.378;2023-01-23T04:52:53;8.35;;;4.75;;
63112;SDS011;49206;48.020;21.378;2023-01-23T04:55:09;6.88;;;4.22;;
63112;SDS011;49206;48.020;21.378;2023-01-23T04:56:14;7.85;;;4.65;;
63112;SDS011;49206;48.020;21.378;2023-01-23T04:57:18;5.68;;;4.35;;
63112;SDS011;49206;48.020;21.378;2023-01-23T04:58:27;7.68;;;4.32;;
63112;SDS011;49206;48.020;21.378;2023-01-23T04:59:40;7.43;;;4.50;;
63112;SDS011;49206;48.020;21.378;2023-01-23T05:00:43;5.90;;;4.35;;
63112;SDS011;49206;48.020;21.378;2023-01-23T05:01:48;5.60;;;4.20;;
63112;SDS011;49206;48.020;21.378;2023-01-23T05:04:21;8.30;;;5.10;;
63112;SDS011;49206;48.020;21.378;2023-01-23T05:05:27;10.13;;;5.35;;
63112;SDS011;49206;48.020;21.378;2023-01-23T05:06:49;7.35;;;5.43;;
63112;SDS011;49206;48.020;21.378;2023-01-23T05:07:56;7.63;;;5.03;;
63112;SDS011;49206;48.020;21.378;2023-01-23T05:08:59;7.85;;;4.40;;
63112;SDS011;49206;48.020;21.378;2023-01-23T05:10:21;8.48;;;4.10;;
63112;SDS011;49206;48.020;21.378;2023-01-23T05:11:30;8.45;;;4.57;;
63112;SDS011;49206;48.020;21.378;2023-01-23T05:12:35;7.78;;;4.22;;
63112;SDS011;49206;48.020;21.378;2023-01-23T05:14:02;8.60;;;4.68;;
63112;SDS011;49206;48.020;21.378;2023-01-23T05:15:09;6.55;;;4.30;;
63112;SDS011;49206;48.020;21.378;2023-01-23T05:16:15;8.50;;;4.57;;
63112;SDS011;49206;48.020;21.378;2023-01-23T05:17:47;8.93;;;4.97;;
63112;SDS011;49206;48.020;21.378;2023-01-23T05:18:50;6.15;;;4.68;;
63112;SDS011;49206;48.020;21.378;2023-01-23T05:19:54;8.50;;;4.82;;
63112;SDS011;49206;48.020;21.378;2023-01-23T05:20:59;6.45;;;4.40;;
63112;SDS011;49206;48.020;21.378;2023-01-23T05:22:02;8.32;;;4.97;;
63112;SDS011;49206;48.020;21.378;2023-01-23T05:23:05;7.72;;;5.10;;
63112;SDS011;49206;48.020;21.378;2023-01-23T05:25:22;6.10;;;4.40;;
63112;SDS011;49206;48.020;21.378;2023-01-23T05:26:28;6.72;;;4.40;;
63112;SDS011;49206;48.020;21.378;2023-01-23T05:27:31;6.78;;;4.60;;
63112;SDS011;49206;48.020;21.378;2023-01-23T05:28:34;6.82;;;4.43;;
63112;SDS011;49206;48.020;21.378;2023-01-23T05:29:36;7.43;;;4.97;;
63112;SDS011;49206;48.020;21.378;2023-01-23T05:30:50;10.02;;;5.97;;
63112;SDS011;49206;48.020;21.378;2023-01-23T05:32:02;20.58;;;12.32;;
63112;SDS011;49206;48.020;21.378;2023-01-23T05:33:11;13.52;;;8.73;;
63112;SDS011;49206;48.020;21.378;2023-01-23T05:34:14;11.80;;;7.22;;
63112;SDS011;49206;48.020;21.378;2023-01-23T05:35:17;11.13;;;7.22;;
63112;SDS011;49206;48.020;21.378;2023-01-23T05:36:22;10.27;;;6.75;;
63112;SDS011;49206;48.020;21.378;2023-01-23T05:37:24;8.60;;;6.10;;
63112;SDS011;49206;48.020;21.378;2023-01-23T05:38:32;9.15;;;5.85;;
63112;SDS011;49206;48.020;21.378;2023-01-23T05:39:34;8.88;;;5.75;;
63112;SDS011;49206;48.020;21.378;2023-01-23T05:40:37;8.98;;;5.78;;
63112;SDS011;49206;48.020;21.378;2023-01-23T05:42:00;6.85;;;5.35;;
63112;SDS011;49206;48.020;21.378;2023-01-23T05:43:26;8.60;;;5.85;;
63112;SDS011;49206;48.020;21.378;2023-01-23T05:44:58;8.25;;;4.97;;
63112;SDS011;49206;48.020;21.378;2023-01-23T05:46:11;8.60;;;5.13;;
63112;SDS011;49206;48.020;21.378;2023-01-23T05:47:21;7.80;;;4.80;;
63112;SDS011;49206;48.020;21.378;2023-01-23T05:48:26;10.48;;;5.28;;
63112;SDS011;49206;48.020;21.378;2023-01-23T05:49:29;8.85;;;5.05;;
63112;SDS011;49206;48.020;21.378;2023-01-23T05:50:35;8.18;;;4.97;;
63112;SDS011;49206;48.020;21.378;2023-01-23T05:51:38;8.63;;;5.68;;
63112;SDS011;49206;48.020;21.378;2023-01-23T05:52:41;7.85;;;4.82;;
63112;SDS011;49206;48.020;21.378;2023-01-23T05:53:43;8.75;;;5.22;;
63112;SDS011;49206;48.020;21.378;2023-01-23T05:54:47;8.55;;;5.68;;
63112;SDS011;49206;48.020;21.378;2023-01-23T05:55:49;7.25;;;5.10;;
63112;SDS011;49206;48.020;21.378;2023-01-23T05:56:53;9.27;;;4.97;;
63112;SDS011;49206;48.020;21.378;2023-01-23T05:58:13;7.05;;;4.57;;
63112;SDS011;49206;48.020;21.378;2023-01-23T05:59:25;8.57;;;5.63;;
63112;SDS011;49206;48.020;21.378;2023-01-23T06:00:54;8.25;;;5.38;;
63112;SDS011;49206;48.020;21.378;2023-01-23T06:02:15;12.45;;;5.45;;
63112;SDS011;49206;48.020;21.378;2023-01-23T06:03:44;7.90;;;5.07;;
63112;SDS011;49206;48.020;21.378;2023-01-23T06:05:23;9.57;;;5.65;;
63112;SDS011;49206;48.020;21.378;2023-01-23T06:06:34;8.55;;;5.05;;
63112;SDS011;49206;48.020;21.378;2023-01-23T06:07:37;8.40;;;5.30;;
63112;SDS011;49206;48.020;21.378;2023-01-23T06:08:43;10.55;;;5.32;;
63112;SDS011;49206;48.020;21.378;2023-01-23T06:09:45;9.48;;;5.65;;
63112;SDS011;49206;48.020;21.378;2023-01-23T06:10:48;9.27;;;5.60;;
63112;SDS011;49206;48.020;21.378;2023-01-23T06:11:53;7.53;;;5.47;;
63112;SDS011;49206;48.020;21.378;2023-01-23T06:12:55;6.70;;;4.80;;
63112;SDS011;49206;48.020;21.378;2023-01-23T06:13:58;9.45;;;4.82;;
63112;SDS011;49206;48.020;21.378;2023-01-23T06:15:01;8.65;;;5.13;;
63112;SDS011;49206;48.020;21.378;2023-01-23T06:16:03;7.97;;;5.38;;
63112;SDS011;49206;48.020;21.378;2023-01-23T06:17:06;8.32;;;4.60;;
63112;SDS011;49206;48.020;21.378;2023-01-23T06:18:09;9.27;;;5.05;;
63112;SDS011;49206;48.020;21.378;2023-01-23T06:19:12;7.78;;;4.65;;
63112;SDS011;49206;48.020;21.378;2023-01-23T06:20:15;8.35;;;5.45;;
63112;SDS011;49206;48.020;21.378;2023-01-23T06:21:20;10.15;;;5.90;;
63112;SDS011;49206;48.020;21.378;2023-01-23T06:22:22;8.65;;;5.63;;
63112;SDS011;49206;48.020;21.378;2023-01-23T06:23:44;8.75;;;5.07;;
63112;SDS011;49206;48.020;21.378;2023-01-23T06:24:50;8.52;;;5.53;;
63112;SDS011;49206;48.020;21.378;2023-01-23T06:25:57;7.38;;;5.05;;
63112;SDS011;49206;48.020;21.378;2023-01-23T06:27:00;7.07;;;4.80;;
63112;SDS011;49206;48.020;21.378;2023-01-23T06:28:05;7.97;;;4.75;;
63112;SDS011;49206;48.020;21.378;2023-01-23T06:29:09;9.02;;;5.78;;
63112;SDS011;49206;48.020;21.378;2023-01-23T06:30:12;7.35;;;4.85;;
63112;SDS011;49206;48.020;21.378;2023-01-23T06:31:19;8.40;;;4.88;;
63112;SDS011;49206;48.020;21.378;2023-01-23T06:32:26;7.70;;;4.93;;
63112;SDS011;49206;48.020;21.378;2023-01-23T06:33:29;9.13;;;5.20;;
63112;SDS011;49206;48.020;21.378;2023-01-23T06:34:32;7.72;;;5.00;;
63112;SDS011;49206;48.020;21.378;2023-01-23T06:36:40;7.68;;;5.13;;
63112;SDS011;49206;48.020;21.378;2023-01-23T06:37:43;7.13;;;4.50;;
63112;SDS011;49206;48.020;21.378;2023-01-23T06:38:49;8.75;;;5.28;;
63112;SDS011;49206;48.020;21.378;2023-01-23T06:39:56;7.70;;;4.55;;
63112;SDS011;49206;48.020;21.378;2023-01-23T06:40:59;8.13;;;5.28;;
63112;SDS011;49206;48.020;21.378;2023-01-23T06:42:09;7.90;;;5.07;;
63112;SDS011;49206;48.020;21.378;2023-01-23T06:43:16;10.05;;;5.00;;
63112;SDS011;49206;48.020;21.378;2023-01-23T06:44:22;8.32;;;4.85;;
63112;SDS011;49206;48.020;21.378;2023-01-23T06:45:25;7.03;;;4.82;;
63112;SDS011;49206;48.020;21.378;2023-01-23T06:46:27;8.05;;;5.45;;
63112;SDS011;49206;48.020;21.378;2023-01-23T06:47:30;9.27;;;5.35;;
63112;SDS011;49206;48.020;21.378;2023-01-23T06:48:35;9.70;;;5.32;;
63112;SDS011;49206;48.020;21.378;2023-01-23T06:49:39;8.00;;;5.10;;
63112;SDS011;49206;48.020;21.378;2023-01-23T06:50:42;8.68;;;5.28;;
63112;SDS011;49206;48.020;21.378;2023-01-23T06:51:46;9.10;;;5.60;;
63112;SDS011;49206;48.020;21.378;2023-01-23T06:52:49;8.30;;;5.32;;
63112;SDS011;49206;48.020;21.378;2023-01-23T06:53:52;8.38;;;5.32;;
63112;SDS011;49206;48.020;21.378;2023-01-23T06:54:55;9.52;;;5.28;;
63112;SDS011;49206;48.020;21.378;2023-01-23T06:56:02;8.80;;;5.38;;
63112;SDS011;49206;48.020;21.378;2023-01-23T06:57:08;7.03;;;4.78;;
63112;SDS011;49206;48.020;21.378;2023-01-23T06:58:11;8.35;;;5.38;;